Time;durP1;ratioP1;P1;durP2;ratioP2;P2;SDS_P1;SDS_P2;PMS_P1;PMS_P2;Temp;Humidity;BMP_temperature;BMP_pressure;BME280_temperature;BME280_humidity;BME280_pressure;Samples;Min_cycle;Max_cycle;Signal;HPM_P1;HPM_P2
2022/03/31 00:01:07;;;;;;;12.27;10.07;;;11.60;95.00;;;;;;5047457;28;20683;-30
2022/03/31 00:03:34;;;;;;;13.47;10.00;;;11.60;95.00;;;;;;5047271;28;20226;-30
2022/03/31 00:06:06;;;;;;;14.97;10.80;;;11.60;95.00;;;;;;5059409;28;20206;-30
2022/03/31 00:08:33;;;;;;;12.13;10.17;;;11.60;95.10;;;;;;5064230;28;20223;-30
2022/03/31 00:11:00;;;;;;;15.07;10.47;;;11.50;95.00;;;;;;5061204;28;20239;-30
2022/03/31 00:13:29;;;;;;;14.60;10.53;;;11.50;95.10;;;;;;5063428;28;20209;-30
2022/03/31 00:16:00;;;;;;;15.93;10.47;;;11.50;95.10;;;;;;5062967;28;20265;-30
2022/03/31 00:18:29;;;;;;;15.00;10.50;;;11.50;95.10;;;;;;5062825;28;20222;-33
2022/03/31 00:20:56;;;;;;;13.77;10.90;;;11.40;95.00;;;;;;5057649;28;20570;-33
2022/03/31 00:23:26;;;;;;;14.87;10.47;;;11.40;95.10;;;;;;5057584;28;20589;-33
2022/03/31 00:25:58;;;;;;;16.07;11.33;;;11.40;95.20;;;;;;5063233;28;20219;-33
2022/03/31 00:28:28;;;;;;;16.40;10.30;;;11.40;95.20;;;;;;5065507;28;20230;-33
2022/03/31 00:30:59;;;;;;;12.80;10.27;;;11.40;95.20;;;;;;5063447;28;20241;-33
2022/03/31 00:33:32;;;;;;;11.93;9.73;;;11.40;95.20;;;;;;5059258;28;20211;-33
2022/03/31 00:35:59;;;;;;;11.03;9.30;;;11.40;95.10;;;;;;5045806;28;20227;-33
2022/03/31 00:38:28;;;;;;;11.70;9.60;;;11.40;95.10;;;;;;5051758;28;20210;-33
2022/03/31 00:40:58;;;;;;;14.03;9.50;;;11.30;95.00;;;;;;5059589;28;20200;-33
2022/03/31 00:43:27;;;;;;;12.10;8.80;;;11.30;95.10;;;;;;5057674;28;20215;-33
2022/03/31 00:45:58;;;;;;;11.10;9.33;;;11.30;95.00;;;;;;5057854;28;20215;-33
2022/03/31 00:48:28;;;;;;;12.23;9.80;;;11.30;95.10;;;;;;5052235;28;20227;-32
2022/03/31 00:50:58;;;;;;;12.80;9.97;;;11.20;95.00;;;;;;5062739;28;20200;-30
2022/03/31 00:53:25;;;;;;;11.87;9.53;;;11.20;95.10;;;;;;5050730;28;20203;-30
2022/03/31 00:55:58;;;;;;;10.33;9.10;;;11.20;95.10;;;;;;5053036;28;20223;-30
2022/03/31 00:58:26;;;;;;;12.13;8.90;;;11.20;95.10;;;;;;5060249;28;20215;-30
2022/03/31 01:01:00;;;;;;;11.63;8.17;;;11.20;95.10;;;;;;5065671;28;20554;-30
2022/03/31 01:03:29;;;;;;;10.10;7.90;;;11.20;95.10;;;;;;5058752;28;20265;-30
2022/03/31 01:05:56;;;;;;;9.10;7.73;;;11.10;95.10;;;;;;5066778;28;20203;-30
2022/03/31 01:08:23;;;;;;;11.60;8.13;;;11.10;95.10;;;;;;5067426;28;20227;-30
2022/03/31 01:10:53;;;;;;;9.03;7.27;;;11.10;95.10;;;;;;5064390;28;20693;-30
2022/03/31 01:13:21;;;;;;;11.23;8.30;;;11.10;95.00;;;;;;5063398;28;20206;-30
2022/03/31 01:15:51;;;;;;;8.97;7.47;;;11.00;94.90;;;;;;5064389;28;20713;-30
2022/03/31 01:18:23;;;;;;;9.93;7.80;;;11.00;94.90;;;;;;5069146;28;20609;-30
2022/03/31 01:20:52;;;;;;;9.57;7.73;;;11.00;94.90;;;;;;5060577;28;20207;-30
2022/03/31 01:23:25;;;;;;;8.77;7.83;;;11.00;94.90;;;;;;5058106;28;20446;-30
2022/03/31 01:25:52;;;;;;;10.03;7.70;;;10.90;94.80;;;;;;5064534;28;20208;-30
2022/03/31 01:28:20;;;;;;;9.77;8.10;;;10.90;94.90;;;;;;5060744;28;21236;-30
2022/03/31 01:30:47;;;;;;;10.43;7.40;;;10.90;94.80;;;;;;5066649;28;20677;-30
2022/03/31 01:33:17;;;;;;;11.63;7.57;;;10.90;94.90;;;;;;5063964;28;20234;-30
2022/03/31 01:35:44;;;;;;;9.17;7.37;;;10.90;94.90;;;;;;5058071;28;20724;-30
2022/03/31 01:38:11;;;;;;;9.90;6.77;;;10.90;94.90;;;;;;5064030;28;20306;-30
2022/03/31 01:40:39;;;;;;;9.47;7.20;;;10.90;94.90;;;;;;5066163;28;20290;-30
2022/03/31 01:43:09;;;;;;;8.17;6.90;;;10.80;94.80;;;;;;5066233;28;20215;-33
2022/03/31 01:45:39;;;;;;;9.67;7.23;;;10.80;94.80;;;;;;5061593;28;20205;-33
2022/03/31 01:48:08;;;;;;;10.23;7.43;;;10.80;94.80;;;;;;5062303;28;20231;-33
2022/03/31 01:50:38;;;;;;;8.87;7.17;;;10.80;94.80;;;;;;5054036;28;20223;-33
2022/03/31 01:53:06;;;;;;;9.00;7.30;;;10.80;94.70;;;;;;5059442;28;20294;-33
2022/03/31 01:55:33;;;;;;;8.93;7.30;;;10.80;94.70;;;;;;5064024;28;20839;-32
2022/03/31 01:58:01;;;;;;;10.70;7.00;;;10.70;94.60;;;;;;5062202;28;20204;-33
2022/03/31 02:00:35;;;;;;;9.80;7.20;;;10.70;94.60;;;;;;5064737;28;20216;-33
2022/03/31 02:03:07;;;;;;;9.27;6.90;;;10.70;94.60;;;;;;5059266;28;20636;-30
2022/03/31 02:05:35;;;;;;;9.33;6.73;;;10.60;94.60;;;;;;5059284;28;20223;-30
2022/03/31 02:08:04;;;;;;;8.87;6.93;;;10.60;94.50;;;;;;5062883;28;20319;-30
2022/03/31 02:10:36;;;;;;;8.43;6.97;;;10.60;94.50;;;;;;5061954;28;20627;-30
2022/03/31 02:13:08;;;;;;;9.43;7.60;;;10.60;94.60;;;;;;5059969;28;20200;-30
2022/03/31 02:15:35;;;;;;;8.80;7.07;;;10.60;94.70;;;;;;5048618;28;20242;-30
2022/03/31 02:18:04;;;;;;;9.63;7.47;;;10.50;95.00;;;;;;5064800;28;20257;-29
2022/03/31 02:20:32;;;;;;;11.57;7.63;;;10.50;94.70;;;;;;5062084;28;20203;-29
2022/03/31 02:23:05;;;;;;;11.67;8.07;;;10.50;94.70;;;;;;5058150;28;20295;-29
2022/03/31 02:25:32;;;;;;;10.07;8.40;;;10.50;94.60;;;;;;5062663;28;20211;-29
2022/03/31 02:27:59;;;;;;;9.13;7.93;;;10.50;94.60;;;;;;5061535;28;20223;-29
2022/03/31 02:30:27;;;;;;;12.43;8.13;;;10.50;94.70;;;;;;5049588;28;20211;-29
2022/03/31 02:32:59;;;;;;;10.63;8.00;;;10.50;94.90;;;;;;5059845;28;20216;-29
2022/03/31 02:35:29;;;;;;;9.33;7.63;;;10.40;94.70;;;;;;5053316;28;20195;-29
2022/03/31 02:37:57;;;;;;;9.70;7.77;;;10.40;94.70;;;;;;5054062;28;20294;-29
2022/03/31 02:40:29;;;;;;;8.87;7.67;;;10.40;94.80;;;;;;5062952;28;20963;-29
2022/03/31 02:42:59;;;;;;;11.27;7.57;;;10.30;94.60;;;;;;5066499;28;20204;-29
2022/03/31 02:45:26;;;;;;;9.60;7.00;;;10.30;94.70;;;;;;5058950;28;20248;-29
2022/03/31 02:47:56;;;;;;;9.60;7.10;;;10.30;94.60;;;;;;5060034;28;20265;-29
2022/03/31 02:50:26;;;;;;;7.60;6.67;;;10.30;94.70;;;;;;5052455;28;20303;-30
2022/03/31 02:55:41;;;;;;;9.80;7.43;;;10.20;94.50;;;;;;5063902;28;20202;-29
2022/03/31 02:58:09;;;;;;;10.67;8.03;;;10.10;94.70;;;;;;5048338;28;20207;-29
2022/03/31 03:00:41;;;;;;;9.17;7.67;;;10.10;94.80;;;;;;5058603;28;20203;-30
2022/03/31 03:03:11;;;;;;;11.63;7.40;;;10.00;94.50;;;;;;5066130;28;20820;-32
2022/03/31 03:05:41;;;;;;;9.80;7.70;;;10.00;94.40;;;;;;5058870;28;20204;-32
2022/03/31 03:08:15;;;;;;;9.67;7.53;;;10.00;94.30;;;;;;5065508;28;20212;-32
2022/03/31 03:10:45;;;;;;;10.77;8.20;;;10.00;94.30;;;;;;5060714;28;20995;-32
2022/03/31 03:13:14;;;;;;;10.53;7.40;;;9.90;94.80;;;;;;5061391;28;20289;-32
2022/03/31 03:15:48;;;;;;;12.00;9.00;;;9.90;94.80;;;;;;5062098;28;20198;-32
2022/03/31 03:18:20;;;;;;;10.73;8.63;;;9.90;94.90;;;;;;5058225;28;20212;-32
2022/03/31 03:20:49;;;;;;;12.60;9.43;;;9.90;94.90;;;;;;5055161;28;20294;-32
2022/03/31 03:23:21;;;;;;;10.87;8.73;;;9.80;94.80;;;;;;5065941;28;20754;-32
2022/03/31 03:25:51;;;;;;;14.13;8.97;;;9.80;94.80;;;;;;5062329;28;20298;-32
2022/03/31 03:28:19;;;;;;;12.40;8.97;;;9.70;94.90;;;;;;5063977;28;20249;-32
2022/03/31 03:30:48;;;;;;;11.57;9.00;;;9.80;94.80;;;;;;5053108;28;20231;-30
2022/03/31 03:33:20;;;;;;;13.10;9.10;;;9.70;94.90;;;;;;5063341;28;20628;-30
2022/03/31 03:35:48;;;;;;;14.87;9.17;;;9.70;94.80;;;;;;5065791;28;20291;-30
2022/03/31 03:38:16;;;;;;;11.57;9.27;;;9.70;94.80;;;;;;5061332;28;20243;-30
2022/03/31 03:40:43;;;;;;;12.60;9.43;;;9.60;94.70;;;;;;5065479;28;20203;-30
2022/03/31 03:43:13;;;;;;;11.33;9.80;;;9.60;94.70;;;;;;5060740;28;20204;-30
2022/03/31 03:45:40;;;;;;;12.30;9.67;;;9.60;94.70;;;;;;5062639;28;20348;-32
2022/03/31 03:48:10;;;;;;;11.00;9.00;;;9.50;94.60;;;;;;5065830;28;20215;-33
2022/03/31 03:50:39;;;;;;;13.03;9.90;;;9.50;94.50;;;;;;5066290;28;20698;-32
2022/03/31 03:53:07;;;;;;;14.00;10.27;;;9.50;94.50;;;;;;5070212;28;20682;-32
2022/03/31 03:55:37;;;;;;;12.17;9.53;;;9.40;95.00;;;;;;5067028;28;20765;-33
2022/03/31 03:58:07;;;;;;;15.30;9.47;;;9.40;95.00;;;;;;5062264;28;20748;-33
2022/03/31 04:00:37;;;;;;;13.47;9.83;;;9.40;95.00;;;;;;5061524;28;20188;-35
2022/03/31 04:03:05;;;;;;;11.03;8.53;;;9.30;95.00;;;;;;5065465;28;20700;-30
2022/03/31 04:05:32;;;;;;;8.90;7.97;;;9.30;94.70;;;;;;5051648;28;20214;-30
2022/03/31 04:08:07;;;;;;;11.00;7.83;;;9.30;95.10;;;;;;5055950;28;20211;-30
2022/03/31 04:10:39;;;;;;;10.73;8.40;;;9.20;94.70;;;;;;5060320;28;20674;-30
2022/03/31 04:13:09;;;;;;;11.57;8.93;;;9.20;94.60;;;;;;5065200;28;20211;-30
2022/03/31 04:15:36;;;;;;;10.07;8.13;;;9.10;95.10;;;;;;5065272;28;20199;-30
2022/03/31 04:18:07;;;;;;;12.10;8.67;;;9.10;94.80;;;;;;5059439;28;20261;-30
2022/03/31 04:20:38;;;;;;;11.93;9.20;;;9.10;94.70;;;;;;5065207;28;20208;-30
2022/03/31 04:23:05;;;;;;;11.07;8.13;;;9.10;94.60;;;;;;5064467;28;20219;-30
2022/03/31 04:25:36;;;;;;;9.20;7.40;;;9.00;94.80;;;;;;5057590;28;20199;-30
2022/03/31 04:28:04;;;;;;;9.27;7.27;;;9.00;94.80;;;;;;5064645;28;20217;-30
2022/03/31 04:30:34;;;;;;;8.53;7.53;;;8.90;95.00;;;;;;5055027;28;20220;-30
2022/03/31 04:33:04;;;;;;;7.93;6.90;;;8.90;95.20;;;;;;5061706;28;20230;-30
2022/03/31 04:35:36;;;;;;;9.57;7.47;;;8.90;94.70;;;;;;5066646;28;20225;-30
2022/03/31 04:38:06;;;;;;;9.10;7.50;;;8.80;94.90;;;;;;5068016;28;20203;-30
2022/03/31 04:40:34;;;;;;;8.97;7.77;;;8.80;94.80;;;;;;5068191;28;20223;-30
2022/03/31 04:43:09;;;;;;;12.60;8.70;;;8.70;94.80;;;;;;5067349;28;20286;-30
2022/03/31 04:45:41;;;;;;;11.80;9.47;;;8.60;95.50;;;;;;5066290;28;20236;-30
2022/03/31 04:48:08;;;;;;;14.00;9.47;;;8.50;95.30;;;;;;5060782;28;20663;-30
2022/03/31 04:50:36;;;;;;;10.73;9.13;;;8.40;95.20;;;;;;5068570;28;20631;-30
2022/03/31 04:53:03;;;;;;;9.77;7.83;;;8.30;95.60;;;;;;5069050;28;20207;-30
2022/03/31 04:55:31;;;;;;;7.53;5.60;;;8.20;95.50;;;;;;5063870;28;20667;-32
2022/03/31 04:57:58;;;;;;;8.17;5.47;;;8.10;95.30;;;;;;5067655;28;20230;-32
2022/03/31 05:00:31;;;;;;;6.03;5.03;;;7.90;95.10;;;;;;5054948;28;20947;-32
2022/03/31 05:03:01;;;;;;;4.37;3.90;;;7.90;94.70;;;;;;5056711;28;20203;-33
2022/03/31 05:05:30;;;;;;;4.07;3.67;;;7.80;94.80;;;;;;5058449;28;20218;-32
2022/03/31 05:07:58;;;;;;;4.83;3.10;;;7.70;95.10;;;;;;5063004;28;20261;-32
2022/03/31 05:10:29;;;;;;;4.30;3.07;;;7.60;94.80;;;;;;5059518;28;20300;-32
2022/03/31 05:13:00;;;;;;;3.77;3.40;;;7.40;95.10;;;;;;5060064;28;20316;-32
2022/03/31 05:15:29;;;;;;;3.33;3.00;;;7.20;94.80;;;;;;5059356;28;20212;-32
2022/03/31 05:18:03;;;;;;;3.47;3.17;;;7.00;94.80;;;;;;5060989;28;20194;-32
2022/03/31 05:20:35;;;;;;;3.50;3.20;;;6.80;95.00;;;;;;5066333;28;20208;-32
2022/03/31 05:23:04;;;;;;;3.53;3.23;;;6.80;94.70;;;;;;5067296;28;20269;-32
2022/03/31 05:25:34;;;;;;;4.67;4.03;;;6.70;94.30;;;;;;5062218;28;20640;-32
2022/03/31 05:28:04;;;;;;;4.43;4.03;;;6.70;94.60;;;;;;5063928;28;20325;-32
2022/03/31 05:30:32;;;;;;;5.43;4.20;;;6.60;95.00;;;;;;5065850;28;20227;-32
2022/03/31 05:33:02;;;;;;;6.47;5.47;;;6.50;94.70;;;;;;5066378;28;20605;-32
2022/03/31 05:35:32;;;;;;;6.27;5.60;;;6.40;94.90;;;;;;5060876;28;20257;-32
2022/03/31 05:38:02;;;;;;;7.70;6.23;;;6.40;94.30;;;;;;5060563;28;20208;-34
2022/03/31 05:40:32;;;;;;;6.30;5.70;;;6.30;94.80;;;;;;5068696;28;20203;-32
2022/03/31 05:43:01;;;;;;;5.90;5.30;;;6.20;95.20;;;;;;5064177;28;20299;-33
2022/03/31 05:45:31;;;;;;;6.80;6.10;;;6.10;95.00;;;;;;5058455;28;20670;-35
2022/03/31 05:47:58;;;;;;;6.63;6.00;;;6.10;94.90;;;;;;5062058;28;20215;-33
2022/03/31 05:50:28;;;;;;;6.27;5.67;;;6.10;94.60;;;;;;5063180;28;20224;-32
2022/03/31 05:52:58;;;;;;;6.90;6.20;;;6.10;94.60;;;;;;5069897;28;20231;-32
2022/03/31 05:55:25;;;;;;;6.37;5.77;;;6.10;94.40;;;;;;5056772;28;21075;-32
2022/03/31 05:57:52;;;;;;;9.40;6.00;;;6.10;94.50;;;;;;5058917;28;20324;-30
2022/03/31 06:00:23;;;;;;;7.37;5.03;;;6.00;94.80;;;;;;5059330;28;20208;-30
2022/03/31 06:02:55;;;;;;;6.07;5.47;;;6.00;94.60;;;;;;5056778;28;20212;-30
2022/03/31 06:05:22;;;;;;;7.03;4.90;;;6.00;94.60;;;;;;5078135;28;20678;-30
2022/03/31 06:07:52;;;;;;;6.03;5.00;;;6.00;95.20;;;;;;5052974;28;20287;-32
2022/03/31 06:10:22;;;;;;;5.27;4.77;;;5.90;95.00;;;;;;5053154;28;20455;-35
2022/03/31 06:12:51;;;;;;;4.20;3.80;;;5.90;94.50;;;;;;5059380;28;20196;-35
2022/03/31 06:15:19;;;;;;;3.30;3.00;;;6.00;94.60;;;;;;5063928;28;20215;-35
2022/03/31 06:17:46;;;;;;;2.90;2.60;;;6.00;94.80;;;;;;5056098;28;20203;-33
2022/03/31 06:20:19;;;;;;;2.50;2.30;;;5.90;95.10;;;;;;5059074;28;20239;-32
2022/03/31 06:22:49;;;;;;;2.80;2.60;;;5.90;94.70;;;;;;5060124;28;20211;-32
2022/03/31 06:25:21;;;;;;;2.97;2.67;;;5.90;95.10;;;;;;5057264;28;20200;-35
2022/03/31 06:27:54;;;;;;;2.83;2.63;;;5.90;94.40;;;;;;5063834;28;20292;-35
2022/03/31 06:30:23;;;;;;;2.93;2.70;;;5.90;94.80;;;;;;5058831;28;20246;-32
2022/03/31 06:32:51;;;;;;;3.30;2.40;;;5.90;94.60;;;;;;5038569;28;20204;-32
2022/03/31 06:35:19;;;;;;;2.43;2.23;;;5.80;94.50;;;;;;5058665;28;20216;-31
2022/03/31 06:37:48;;;;;;;4.83;2.77;;;5.80;94.40;;;;;;5058902;28;20287;-30
2022/03/31 06:40:18;;;;;;;4.23;2.60;;;5.80;94.60;;;;;;5050145;28;20218;-30
2022/03/31 06:42:46;;;;;;;3.67;2.80;;;5.80;94.60;;;;;;5060420;28;20453;-30
2022/03/31 06:45:18;;;;;;;10.23;2.90;;;5.80;94.60;;;;;;5061693;28;20206;-30
2022/03/31 06:48:02;;;;;;;3.13;2.87;;;5.80;94.30;;;;;;5049265;28;20218;-31
2022/03/31 06:50:35;;;;;;;2.83;2.60;;;5.70;94.60;;;;;;5053716;28;20321;-31
2022/03/31 06:53:04;;;;;;;3.03;2.73;;;5.70;94.90;;;;;;5066356;28;20219;-31
2022/03/31 06:55:32;;;;;;;4.00;2.80;;;5.70;94.80;;;;;;5065156;28;20215;-31
2022/03/31 06:58:02;;;;;;;3.53;2.50;;;5.60;94.80;;;;;;5071658;28;20597;-32
2022/03/31 07:00:30;;;;;;;3.97;3.13;;;5.60;94.50;;;;;;5058260;28;20260;-31
2022/03/31 07:02:58;;;;;;;3.50;3.20;;;5.60;94.80;;;;;;5052675;28;20285;-31
2022/03/31 07:05:30;;;;;;;3.17;2.80;;;5.60;94.80;;;;;;5054625;28;20199;-31
2022/03/31 07:07:57;;;;;;;3.10;2.77;;;5.60;94.80;;;;;;5057089;28;20295;-31
2022/03/31 07:10:26;;;;;;;3.10;2.80;;;5.60;94.80;;;;;;5059406;28;20591;-31
2022/03/31 07:12:54;;;;;;;3.40;3.10;;;5.60;94.60;;;;;;5066717;28;20196;-31
2022/03/31 07:15:23;;;;;;;3.23;2.93;;;5.60;94.80;;;;;;5061734;28;20265;-31
2022/03/31 07:17:57;;;;;;;3.40;3.10;;;5.60;94.70;;;;;;5065077;28;20234;-31
2022/03/31 07:20:27;;;;;;;4.40;3.87;;;5.60;94.60;;;;;;5063304;28;20211;-31
2022/03/31 07:22:57;;;;;;;4.43;4.03;;;5.60;94.50;;;;;;5062696;28;20212;-31
2022/03/31 07:25:24;;;;;;;4.73;4.17;;;5.60;95.00;;;;;;5062089;28;20677;-31
2022/03/31 07:27:52;;;;;;;4.90;4.40;;;5.60;94.60;;;;;;5056000;28;20195;-31
2022/03/31 07:30:22;;;;;;;5.50;5.00;;;5.60;94.50;;;;;;5056619;28;20231;-31
2022/03/31 07:32:53;;;;;;;6.67;5.07;;;5.60;95.10;;;;;;5067253;28;20606;-31
2022/03/31 07:35:25;;;;;;;6.30;5.43;;;5.70;94.90;;;;;;5058660;28;20211;-31
2022/03/31 07:37:54;;;;;;;6.23;5.63;;;5.60;94.70;;;;;;5055687;28;20226;-31
2022/03/31 07:40:26;;;;;;;6.33;5.73;;;5.70;94.70;;;;;;5058127;28;20196;-32
2022/03/31 07:42:53;;;;;;;7.03;6.33;;;5.70;94.80;;;;;;5061916;28;20578;-31
2022/03/31 07:45:21;;;;;;;6.60;6.00;;;5.70;94.70;;;;;;5058100;28;20243;-31
2022/03/31 07:47:49;;;;;;;7.37;6.60;;;5.70;94.50;;;;;;5058343;28;20717;-32
2022/03/31 07:50:18;;;;;;;7.67;6.70;;;5.70;95.30;;;;;;5061264;28;20298;-31
2022/03/31 07:52:49;;;;;;;7.70;6.83;;;5.70;95.40;;;;;;5051121;28;20675;-31
2022/03/31 07:55:19;;;;;;;24.43;8.80;;;5.70;95.10;;;;;;5057159;28;20724;-31
2022/03/31 07:57:50;;;;;;;15.27;7.90;;;5.70;94.90;;;;;;5058080;28;20215;-31
2022/03/31 08:00:18;;;;;;;12.90;7.97;;;5.70;95.00;;;;;;5052445;28;20582;-31
2022/03/31 08:02:52;;;;;;;7.67;6.40;;;5.70;95.10;;;;;;5055586;28;20291;-31
2022/03/31 08:05:24;;;;;;;7.40;6.33;;;5.70;95.30;;;;;;5061786;28;20206;-31
2022/03/31 08:07:57;;;;;;;10.03;6.97;;;5.70;95.30;;;;;;5060849;28;20211;-30
2022/03/31 08:10:24;;;;;;;8.00;6.57;;;5.70;95.40;;;;;;5064118;28;20211;-31
2022/03/31 08:12:54;;;;;;;7.63;6.50;;;5.70;95.40;;;;;;5071025;28;20250;-31
2022/03/31 08:15:25;;;;;;;9.43;7.73;;;5.70;95.00;;;;;;5059407;28;20291;-30
2022/03/31 08:17:55;;;;;;;9.33;8.00;;;5.70;95.20;;;;;;5060032;28;20200;-30
2022/03/31 08:20:25;;;;;;;9.87;7.77;;;5.70;95.80;;;;;;5058542;28;20211;-31
2022/03/31 08:22:55;;;;;;;10.07;8.90;;;5.70;95.40;;;;;;5069834;28;20294;-31
2022/03/31 08:25:25;;;;;;;10.30;9.20;;;5.70;95.70;;;;;;5058073;28;20609;-30
2022/03/31 08:27:54;;;;;;;12.10;10.30;;;5.70;95.40;;;;;;5066171;28;20257;-30
2022/03/31 08:30:25;;;;;;;12.10;10.57;;;5.70;95.40;;;;;;5069233;28;20216;-31
2022/03/31 08:32:56;;;;;;;10.20;8.87;;;5.70;95.40;;;;;;5060357;28;20562;-31
2022/03/31 08:35:27;;;;;;;11.20;9.63;;;5.70;95.50;;;;;;5050265;28;20196;-31
2022/03/31 08:37:57;;;;;;;10.30;9.13;;;5.70;95.80;;;;;;5066264;28;20302;-31
2022/03/31 08:40:29;;;;;;;14.53;11.83;;;5.70;95.30;;;;;;5084920;28;20576;-31
2022/03/31 08:43:01;;;;;;;15.10;13.03;;;5.70;95.80;;;;;;5068744;28;20239;-31
2022/03/31 08:45:33;;;;;;;14.03;12.17;;;5.70;95.70;;;;;;5056487;28;20748;-31
2022/03/31 08:48:01;;;;;;;14.43;12.93;;;5.80;95.30;;;;;;5049757;28;20219;-31
2022/03/31 08:50:33;;;;;;;16.53;12.73;;;5.80;95.50;;;;;;5053845;28;20269;-31
2022/03/31 08:53:00;;;;;;;14.20;12.70;;;5.80;95.40;;;;;;5054149;28;20203;-31
2022/03/31 08:55:30;;;;;;;15.57;12.37;;;5.80;95.80;;;;;;5060039;28;20231;-31
2022/03/31 08:57:57;;;;;;;12.03;10.83;;;5.90;95.70;;;;;;5064716;28;20694;-31
2022/03/31 09:00:27;;;;;;;17.77;12.43;;;5.90;95.50;;;;;;5065290;28;20622;-31
2022/03/31 09:03:03;;;;;;;19.10;11.80;;;6.00;96.00;;;;;;5055493;28;20208;-31
2022/03/31 09:05:41;;;;;;;14.63;12.97;;;6.00;95.90;;;;;;5061058;28;20215;-31
2022/03/31 09:08:13;;;;;;;12.90;11.37;;;6.00;96.30;;;;;;5058795;28;20586;-31
2022/03/31 09:10:47;;;;;;;13.47;11.83;;;6.00;95.80;;;;;;5060871;28;20224;-31
2022/03/31 09:13:30;;;;;;;22.27;13.10;;;6.00;95.90;;;;;;5077801;28;20254;-31
2022/03/31 09:16:03;;;;;;;13.80;11.20;;;6.10;95.70;;;;;;5047876;28;20235;-31
2022/03/31 09:18:36;;;;;;;12.03;9.40;;;6.10;95.50;;;;;;5056882;28;20445;-34
2022/03/31 09:21:10;;;;;;;9.60;8.60;;;6.10;96.20;;;;;;5071670;28;20298;-34
2022/03/31 09:23:42;;;;;;;10.13;8.60;;;6.10;95.80;;;;;;5067939;28;20322;-34
2022/03/31 09:26:12;;;;;;;9.97;8.97;;;6.10;96.10;;;;;;5065112;28;20234;-33
2022/03/31 09:28:41;;;;;;;9.70;8.73;;;6.10;96.10;;;;;;5061752;28;20208;-34
2022/03/31 09:31:10;;;;;;;8.13;7.13;;;6.10;95.80;;;;;;5037253;28;20277;-34
2022/03/31 09:33:48;;;;;;;8.67;7.80;;;6.20;95.70;;;;;;5052336;28;20264;-34
2022/03/31 09:36:18;;;;;;;8.83;7.40;;;6.20;96.00;;;;;;5068980;28;20205;-34
2022/03/31 09:39:02;;;;;;;9.03;7.33;;;6.20;96.40;;;;;;5069536;28;20690;-34
2022/03/31 09:41:33;;;;;;;9.23;6.40;;;6.30;96.40;;;;;;5067460;28;20234;-34
2022/03/31 09:44:12;;;;;;;7.03;6.30;;;6.40;96.60;;;;;;5064879;28;20310;-34
2022/03/31 09:46:40;;;;;;;9.83;7.70;;;6.40;96.00;;;;;;5068935;28;20241;-34
2022/03/31 09:49:15;;;;;;;6.93;6.00;;;6.50;96.30;;;;;;5068536;28;20208;-34
2022/03/31 09:51:51;;;;;;;6.33;5.10;;;6.50;96.00;;;;;;5068404;28;20845;-33
2022/03/31 09:54:23;;;;;;;5.20;4.70;;;6.60;96.10;;;;;;5056996;28;20705;-33
2022/03/31 09:56:51;;;;;;;6.43;4.97;;;6.70;96.00;;;;;;5068567;28;20294;-33
2022/03/31 09:59:21;;;;;;;5.47;4.13;;;6.60;96.50;;;;;;5045797;28;20588;-33
2022/03/31 10:01:52;;;;;;;5.00;4.50;;;6.70;96.30;;;;;;5054958;28;20204;-33
2022/03/31 10:04:20;;;;;;;4.67;4.07;;;6.70;96.40;;;;;;5056041;28;20200;-33
2022/03/31 10:06:54;;;;;;;4.30;3.87;;;6.70;96.70;;;;;;5049350;28;20232;-33
2022/03/31 10:09:26;;;;;;;4.77;4.23;;;6.70;96.60;;;;;;5067228;28;20202;-33
2022/03/31 10:12:13;;;;;;;4.40;4.00;;;6.70;96.50;;;;;;5067263;28;20208;-36
2022/03/31 10:14:44;;;;;;;4.53;3.83;;;6.70;96.60;;;;;;5057536;28;20192;-33
2022/03/31 10:17:11;;;;;;;3.97;3.57;;;6.70;96.50;;;;;;5048701;28;20206;-34
2022/03/31 10:19:45;;;;;;;7.20;3.63;;;6.70;96.80;;;;;;5063999;28;20199;-33
2022/03/31 10:25:11;;;;;;;4.43;3.30;;;6.80;96.50;;;;;;5048413;28;20216;-33
2022/03/31 10:27:50;;;;;;;5.73;3.80;;;6.90;96.60;;;;;;5064340;28;20770;-33
2022/03/31 10:30:26;;;;;;;4.63;3.30;;;7.00;96.50;;;;;;5063400;28;20698;-33
2022/03/31 10:33:04;;;;;;;6.10;4.03;;;7.10;96.50;;;;;;5049711;28;20646;-33
2022/03/31 10:35:39;;;;;;;5.43;3.67;;;7.10;96.50;;;;;;5055610;28;20202;-31
2022/03/31 10:38:18;;;;;;;6.27;3.97;;;7.10;96.50;;;;;;5057988;28;20187;-30
2022/03/31 10:40:59;;;;;;;4.37;3.63;;;7.20;96.60;;;;;;5033291;28;20212;-30
2022/03/31 10:43:31;;;;;;;7.00;4.23;;;7.30;96.60;;;;;;5047760;28;20303;-31
2022/03/31 10:46:01;;;;;;;4.80;4.00;;;7.30;97.00;;;;;;5065344;28;20206;-33
2022/03/31 10:48:36;;;;;;;17.80;4.67;;;7.40;96.80;;;;;;5051609;28;20220;-33
2022/03/31 10:51:10;;;;;;;4.57;3.80;;;7.50;96.60;;;;;;5048557;28;20653;-33
2022/03/31 10:53:42;;;;;;;4.57;3.63;;;7.50;96.80;;;;;;5061210;28;20709;-33
2022/03/31 10:56:27;;;;;;;5.47;3.80;;;7.50;96.80;;;;;;5054411;28;20204;-33
2022/03/31 10:59:02;;;;;;;5.60;4.10;;;7.50;96.60;;;;;;5062705;28;20227;-33
2022/03/31 11:01:37;;;;;;;8.23;4.13;;;7.60;96.50;;;;;;5065743;28;20204;-34
2022/03/31 11:04:12;;;;;;;5.70;3.77;;;7.60;96.50;;;;;;5066056;28;20230;-34
2022/03/31 11:06:55;;;;;;;3.80;3.40;;;7.70;96.60;;;;;;5062189;28;20586;-34
2022/03/31 11:09:27;;;;;;;3.87;3.47;;;7.70;96.70;;;;;;5056910;28;20223;-33
2022/03/31 11:11:59;;;;;;;6.90;3.67;;;7.70;96.50;;;;;;5064593;28;20314;-34
2022/03/31 11:14:29;;;;;;;4.73;3.77;;;7.70;96.50;;;;;;5063738;28;20196;-34
2022/03/31 11:16:59;;;;;;;4.17;3.67;;;7.70;96.50;;;;;;5067857;28;20686;-33
2022/03/31 11:19:36;;;;;;;3.73;3.33;;;7.70;96.50;;;;;;5060374;28;20204;-31
2022/03/31 11:22:06;;;;;;;4.33;3.60;;;7.70;96.50;;;;;;5049140;28;20200;-31
2022/03/31 11:24:35;;;;;;;5.10;3.40;;;7.70;96.50;;;;;;5051374;28;20641;-31
2022/03/31 11:27:05;;;;;;;6.83;3.53;;;7.70;96.40;;;;;;5066494;28;20218;-31
2022/03/31 11:29:33;;;;;;;26.57;5.87;;;7.70;96.30;;;;;;5065900;28;20239;-31
2022/03/31 11:32:05;;;;;;;4.37;3.47;;;7.80;96.50;;;;;;5063928;28;20227;-31
2022/03/31 11:34:36;;;;;;;4.33;3.50;;;7.70;96.40;;;;;;5065964;28;20348;-34
2022/03/31 11:37:19;;;;;;;3.73;3.23;;;7.70;96.60;;;;;;5065555;28;20207;-33
2022/03/31 11:39:50;;;;;;;3.50;3.20;;;7.80;96.40;;;;;;5057372;28;20204;-34
2022/03/31 11:42:24;;;;;;;3.70;3.27;;;7.80;96.70;;;;;;5051557;28;20210;-33
2022/03/31 11:44:53;;;;;;;3.63;3.30;;;7.80;96.40;;;;;;5066261;28;20226;-33
2022/03/31 11:47:24;;;;;;;36.23;8.53;;;7.90;96.50;;;;;;5066504;28;20195;-34
2022/03/31 11:49:59;;;;;;;39.77;8.83;;;8.00;96.50;;;;;;5065692;28;20397;-34
2022/03/31 11:52:31;;;;;;;6.87;4.03;;;8.10;96.60;;;;;;5061800;28;20240;-34
2022/03/31 11:55:02;;;;;;;4.37;3.53;;;8.20;96.70;;;;;;5052262;28;20593;-31
2022/03/31 11:57:29;;;;;;;4.40;3.60;;;8.30;96.80;;;;;;5065393;28;20298;-31
2022/03/31 12:00:08;;;;;;;6.30;3.53;;;8.30;96.70;;;;;;5066954;28;20222;-31
2022/03/31 12:02:38;;;;;;;6.73;3.60;;;8.40;96.60;;;;;;5062537;28;20621;-32
2022/03/31 12:05:13;;;;;;;4.80;3.40;;;8.50;96.60;;;;;;5065437;28;20607;-33
2022/03/31 12:07:41;;;;;;;4.70;3.40;;;8.50;96.60;;;;;;5051955;28;20232;-32
2022/03/31 12:10:08;;;;;;;4.37;3.40;;;8.50;96.50;;;;;;5047897;28;20239;-32
2022/03/31 12:12:38;;;;;;;3.23;2.93;;;8.50;96.50;;;;;;5052046;28;20727;-32
2022/03/31 12:15:05;;;;;;;5.07;3.90;;;8.60;96.40;;;;;;5046742;28;20298;-32
2022/03/31 12:17:34;;;;;;;6.70;3.80;;;8.50;96.30;;;;;;5059676;28;20238;-32
2022/03/31 12:20:15;;;;;;;5.37;3.20;;;8.50;96.30;;;;;;5055151;28;20195;-32
2022/03/31 12:22:42;;;;;;;3.77;3.23;;;8.60;96.40;;;;;;5064828;28;20709;-32
2022/03/31 12:25:33;;;;;;;3.87;3.30;;;8.60;96.40;;;;;;5061795;28;20210;-32
2022/03/31 12:28:23;;;;;;;5.10;3.60;;;8.70;96.40;;;;;;5064394;28;20211;-32
2022/03/31 12:30:52;;;;;;;4.93;2.80;;;8.80;96.50;;;;;;5061888;28;20222;-32
2022/03/31 12:33:36;;;;;;;7.57;3.27;;;8.80;96.50;;;;;;5057603;28;20277;-33
2022/03/31 12:36:06;;;;;;;4.70;2.60;;;8.90;96.50;;;;;;5066063;28;20208;-32
2022/03/31 12:38:40;;;;;;;4.10;2.90;;;8.90;96.40;;;;;;5059504;28;20204;-32
2022/03/31 12:41:33;;;;;;;3.43;2.87;;;9.00;96.60;;;;;;5057054;28;20317;-32
2022/03/31 12:44:10;;;;;;;3.13;2.70;;;9.00;96.50;;;;;;5057911;28;20220;-32
2022/03/31 12:46:45;;;;;;;3.80;3.10;;;9.10;96.60;;;;;;5061178;28;20595;-33
2022/03/31 12:49:16;;;;;;;3.13;2.60;;;9.20;96.70;;;;;;5075228;28;20213;-32
2022/03/31 12:52:00;;;;;;;3.83;2.70;;;9.20;96.70;;;;;;5063687;28;20251;-33
2022/03/31 12:54:33;;;;;;;3.60;3.00;;;9.40;96.80;;;;;;5068663;28;20710;-32
2022/03/31 12:57:13;;;;;;;3.20;2.87;;;9.40;97.00;;;;;;5062690;28;20210;-32
2022/03/31 12:59:41;;;;;;;4.07;2.57;;;9.50;96.60;;;;;;5069577;28;20579;-32
2022/03/31 13:02:15;;;;;;;3.03;2.60;;;9.50;96.40;;;;;;5052707;28;20624;-32
2022/03/31 13:04:46;;;;;;;2.70;2.50;;;9.50;96.40;;;;;;5060680;28;20227;-32
2022/03/31 13:07:17;;;;;;;3.07;2.73;;;9.50;96.50;;;;;;5050413;28;20229;-33
2022/03/31 13:09:47;;;;;;;3.47;2.97;;;9.60;96.70;;;;;;5067577;28;20276;-32
2022/03/31 13:12:15;;;;;;;3.77;2.83;;;9.70;97.00;;;;;;5064930;28;20464;-33
2022/03/31 13:14:45;;;;;;;3.00;2.70;;;9.70;96.70;;;;;;5066035;28;20195;-32